Terminal Aerodrome Forecast
Issued by NWS Kansas City/Pleasant Hill, MO

Home | Current Version | Previous Version | Text Only | Print | Product List | Glossary On
Versions: 1 2 3 4 5 6 7 8 9 10 11 12 13 14 15 16 17 18 19 20
000
FTUS43 KEAX 222320
TAFMCI
TAF
KMCI 222320Z 2300/2324 VRB05KT P6SM VCSH OVC035
     FM230200 17005KT P6SM OVC040
     FM231000 32006KT P6SM VCSH OVC020
     FM231600 32012KT P6SM BKN035=

USA.gov is the U.S. government's official web portal to all federal, state and local government web resources and services.